Lucknow, South Carolina
Current Conditions -  °F | °C
As of 8:15 AM on Friday 19 Dec 2014 (Local Time) from KHVS Reporting Station
Clear Clear  
Wind Chill: 39°   Ceiling: Unl
Heat Index: 43°   Visibility: 10mi
Dew Point: 32°   Wind: 6mph
Humidity: 66%   Direction: 40°NE
Pressure: 30.17"   Gusts: NA
Location:  34.2324°N, 80.2824°W
Report Text: KHVS 191315Z AUTO 04005KT 10SM CLR 06/00 A3017 RMK AO2
Loading
Personal Weather Stations






























Interactive Weather Map New forecast layout! Learn more

10-Day Weather Forecast

Advertisements
Track Severe Weather on mobile